createdAt,value
2022-09-27T00:01:36.923Z,50.65
2022-09-27T00:04:05.030Z,50.82
2022-09-27T00:06:35.656Z,50.75
2022-09-27T00:09:06.736Z,51.17
2022-09-27T00:11:35.541Z,51.24
2022-09-27T00:14:04.074Z,51.55
2022-09-27T00:16:33.775Z,51.59
2022-09-27T00:19:03.336Z,51.88
2022-09-27T00:21:31.587Z,51.85
2022-09-27T00:24:00.042Z,52.19
2022-09-27T00:26:28.680Z,52.40
2022-09-27T00:28:56.735Z,52.45
2022-09-27T00:31:28.750Z,52.82
2022-09-27T00:33:57.442Z,53.06
2022-09-27T00:36:26.446Z,53.13
2022-09-27T00:38:54.657Z,53.26
2022-09-27T00:41:24.325Z,53.49
2022-09-27T00:43:54.220Z,53.72
2022-09-27T00:46:26.506Z,53.97
2022-09-27T00:48:59.252Z,54.12
2022-09-27T00:51:27.407Z,54.25
2022-09-27T00:53:57.526Z,54.34
2022-09-27T00:56:27.703Z,54.60
2022-09-27T00:58:57.921Z,54.74
2022-09-27T01:01:26.002Z,54.96
2022-09-27T01:04:08.072Z,55.02
2022-09-27T01:06:37.035Z,55.26
2022-09-27T01:09:05.682Z,55.26
2022-09-27T01:11:39.588Z,55.48
2022-09-27T01:14:21.353Z,55.49
2022-09-27T01:16:55.823Z,55.65
2022-09-27T01:19:38.924Z,55.77
2022-09-27T01:22:09.706Z,55.84
2022-09-27T01:24:52.244Z,55.98
2022-09-27T01:27:36.419Z,56.09
2022-09-27T01:30:25.384Z,56.23
2022-09-27T01:32:58.483Z,56.23
2022-09-27T01:35:32.459Z,56.32
2022-09-27T01:38:06.698Z,56.57
2022-09-27T01:40:40.301Z,56.61
2022-09-27T01:43:12.247Z,56.73
2022-09-27T01:45:43.552Z,56.82
2022-09-27T01:48:14.305Z,56.98
2022-09-27T01:50:44.659Z,57.17
2022-09-27T01:53:15.156Z,57.21
2022-09-27T01:55:44.596Z,57.15
2022-09-27T01:58:14.602Z,57.28
2022-09-27T02:00:44.305Z,57.37
2022-09-27T02:03:14.444Z,57.37
2022-09-27T02:05:45.392Z,57.41
2022-09-27T02:08:17.485Z,57.45
2022-09-27T02:10:46.871Z,57.45
2022-09-27T02:13:17.787Z,57.57
2022-09-27T02:15:49.889Z,57.66
2022-09-27T02:18:21.861Z,57.56
2022-09-27T02:20:52.782Z,57.72
2022-09-27T02:23:22.743Z,57.90
2022-09-27T02:25:54.734Z,57.86
2022-09-27T02:28:28.242Z,57.78
2022-09-27T02:30:56.811Z,57.59
2022-09-27T02:33:28.286Z,57.70
2022-09-27T02:35:56.505Z,57.78
2022-09-27T02:38:24.815Z,57.84
2022-09-27T02:40:53.044Z,57.98
2022-09-27T02:43:23.211Z,57.83
2022-09-27T02:46:01.137Z,57.95
2022-09-27T02:48:31.860Z,58.09
2022-09-27T02:51:19.730Z,58.19
2022-09-27T02:53:53.797Z,58.00
2022-09-27T02:56:26.505Z,58.18
2022-09-27T02:59:00.110Z,58.31
2022-09-27T03:01:32.851Z,58.43
2022-09-27T03:04:05.874Z,58.43
2022-09-27T03:06:35.267Z,58.39
2022-09-27T03:09:03.401Z,58.60
2022-09-27T03:11:32.872Z,58.80
2022-09-27T03:14:08.707Z,58.63
2022-09-27T03:16:37.121Z,58.62
2022-09-27T03:19:05.260Z,58.76
2022-09-27T03:21:33.381Z,58.76
2022-09-27T03:24:01.917Z,58.92
2022-09-27T03:26:30.171Z,59.03
2022-09-27T03:28:58.159Z,58.98
2022-09-27T03:31:26.194Z,59.05
2022-09-27T03:33:54.336Z,59.18
2022-09-27T03:36:22.304Z,59.33
2022-09-27T03:38:50.404Z,59.36
2022-09-27T03:41:18.416Z,59.29
2022-09-27T03:43:46.474Z,59.26
2022-09-27T03:46:14.540Z,59.40
2022-09-27T03:48:42.788Z,59.55
2022-09-27T03:51:11.834Z,59.49
2022-09-27T03:53:39.820Z,59.72
2022-09-27T03:56:08.320Z,59.73
2022-09-27T03:58:36.416Z,59.84
2022-09-27T04:01:04.990Z,59.91
2022-09-27T04:03:33.130Z,59.87
2022-09-27T04:06:01.155Z,60.09
2022-09-27T04:08:29.680Z,60.19
2022-09-27T04:10:57.901Z,60.27
2022-09-27T04:13:26.048Z,60.41
2022-09-27T04:15:54.210Z,60.53
2022-09-27T04:18:23.258Z,60.50
2022-09-27T04:20:51.284Z,60.61
2022-09-27T04:23:20.259Z,60.51
2022-09-27T04:25:48.284Z,60.76
2022-09-27T04:28:16.335Z,60.84
2022-09-27T04:30:45.408Z,60.91
2022-09-27T04:33:13.631Z,61.02
2022-09-27T04:36:00.239Z,61.14
2022-09-27T04:38:28.313Z,61.17
2022-09-27T04:40:56.721Z,61.40
2022-09-27T04:43:24.860Z,61.43
2022-09-27T04:45:52.952Z,61.52
2022-09-27T04:48:21.155Z,61.50
2022-09-27T04:50:55.499Z,61.53
2022-09-27T04:53:23.532Z,61.75
2022-09-27T04:55:53.051Z,61.70
2022-09-27T04:58:21.271Z,61.86
2022-09-27T05:00:51.873Z,61.86
2022-09-27T05:03:19.957Z,61.89
2022-09-27T05:05:47.941Z,61.98
2022-09-27T05:08:16.105Z,62.12
2022-09-27T05:10:44.067Z,62.17
2022-09-27T05:13:12.042Z,62.19
2022-09-27T05:15:40.039Z,62.19
2022-09-27T05:18:09.265Z,62.27
2022-09-27T05:20:37.211Z,62.33
2022-09-27T05:23:05.184Z,62.49
2022-09-27T05:25:33.638Z,62.48
2022-09-27T05:28:02.156Z,62.53
2022-09-27T05:30:30.218Z,62.63
2022-09-27T05:32:58.206Z,62.78
2022-09-27T05:35:26.860Z,62.86
2022-09-27T05:37:55.993Z,62.85
2022-09-27T05:40:40.460Z,62.92
2022-09-27T05:43:09.639Z,62.96
2022-09-27T05:45:37.924Z,63.15
2022-09-27T05:48:06.263Z,63.18
2022-09-27T05:50:34.504Z,63.11
2022-09-27T05:53:02.504Z,63.21
2022-09-27T05:55:30.708Z,63.27
2022-09-27T05:57:59.248Z,63.38
2022-09-27T06:00:28.254Z,63.35
2022-09-27T06:02:58.296Z,63.36
2022-09-27T06:05:27.475Z,63.47
2022-09-27T06:07:59.579Z,63.57
2022-09-27T06:10:27.876Z,63.51
2022-09-27T06:12:59.700Z,63.56
2022-09-27T06:15:27.727Z,63.58
2022-09-27T06:17:55.723Z,63.59
2022-09-27T06:20:23.923Z,63.72
2022-09-27T06:22:53.544Z,63.60
2022-09-27T06:25:21.640Z,63.55
2022-09-27T06:27:49.797Z,63.48
2022-09-27T06:30:20.330Z,63.66
2022-09-27T06:32:48.905Z,63.53
2022-09-27T06:35:17.010Z,63.47
2022-09-27T06:37:45.164Z,63.55
2022-09-27T06:40:13.788Z,63.40
2022-09-27T06:42:42.043Z,63.49
2022-09-27T06:45:10.889Z,63.65
2022-09-27T06:47:39.311Z,63.73
2022-09-27T06:50:11.803Z,63.76
2022-09-27T06:52:46.641Z,63.72
2022-09-27T06:55:15.191Z,63.58
2022-09-27T06:58:01.521Z,63.59
2022-09-27T07:00:29.682Z,63.83
2022-09-27T07:03:00.363Z,63.55
2022-09-27T07:05:28.999Z,63.61
2022-09-27T07:07:57.609Z,63.61
2022-09-27T07:10:26.255Z,63.67
2022-09-27T07:12:54.492Z,63.82
2022-09-27T07:15:22.732Z,63.78
2022-09-27T07:17:57.560Z,63.69
2022-09-27T07:20:26.074Z,63.82
2022-09-27T07:22:55.238Z,63.83
2022-09-27T07:25:23.327Z,63.75
2022-09-27T07:27:52.509Z,63.88
2022-09-27T07:30:21.082Z,63.88
2022-09-27T07:32:49.705Z,63.87
2022-09-27T07:35:18.083Z,63.98
2022-09-27T07:37:46.079Z,63.92
2022-09-27T07:40:14.112Z,63.99
2022-09-27T07:42:42.339Z,64.11
2022-09-27T07:45:11.550Z,64.07
2022-09-27T07:47:40.225Z,64.06
2022-09-27T07:50:10.190Z,64.03
2022-09-27T07:52:41.388Z,64.17
2022-09-27T07:55:13.402Z,64.15
2022-09-27T07:57:41.586Z,64.06
2022-09-27T08:00:11.895Z,64.21
2022-09-27T08:02:41.774Z,64.21
2022-09-27T08:05:10.961Z,64.34
2022-09-27T08:07:39.408Z,64.22
2022-09-27T08:10:08.795Z,64.35
2022-09-27T08:12:36.933Z,64.26
2022-09-27T08:15:06.052Z,64.21
2022-09-27T08:17:34.147Z,64.31
2022-09-27T08:20:05.792Z,64.33
2022-09-27T08:22:33.807Z,64.27
2022-09-27T08:25:01.888Z,64.27
2022-09-27T08:27:29.928Z,64.26
2022-09-27T08:29:58.475Z,64.12
2022-09-27T08:32:28.198Z,64.06
2022-09-27T08:34:56.173Z,64.00
2022-09-27T08:37:24.267Z,64.16
2022-09-27T08:39:52.410Z,64.03
2022-09-27T08:42:25.873Z,63.96
2022-09-27T08:45:03.094Z,63.84
2022-09-27T08:47:34.921Z,63.62
2022-09-27T08:50:09.493Z,63.78
2022-09-27T08:52:40.733Z,63.64
2022-09-27T08:55:17.627Z,63.55
2022-09-27T08:57:50.860Z,63.65
2022-09-27T09:00:19.476Z,63.60
2022-09-27T09:02:47.752Z,63.83
2022-09-27T09:05:17.898Z,63.48
2022-09-27T09:07:55.696Z,63.43
2022-09-27T09:10:50.321Z,63.68
2022-09-27T09:13:24.902Z,63.43
2022-09-27T09:15:57.589Z,63.46
2022-09-27T09:18:33.220Z,63.52
2022-09-27T09:21:05.408Z,63.35
2022-09-27T09:23:47.258Z,63.42
2022-09-27T09:26:18.079Z,63.36
2022-09-27T09:28:52.507Z,63.28
2022-09-27T09:31:24.655Z,63.24
2022-09-27T09:33:54.579Z,63.15
2022-09-27T09:36:25.618Z,62.99
2022-09-27T09:38:56.517Z,63.17
2022-09-27T09:41:28.211Z,63.06
2022-09-27T09:43:58.067Z,63.07
2022-09-27T09:46:31.152Z,62.93
2022-09-27T09:49:07.549Z,63.05
2022-09-27T09:51:39.050Z,62.95
2022-09-27T09:54:10.837Z,62.88
2022-09-27T09:56:40.768Z,63.06
2022-09-27T09:59:12.800Z,62.82
2022-09-27T10:01:44.484Z,62.69
2022-09-27T10:04:20.508Z,62.86
2022-09-27T10:06:48.861Z,62.61
2022-09-27T10:09:19.090Z,62.44
2022-09-27T10:11:47.623Z,62.30
2022-09-27T10:14:16.728Z,62.47
2022-09-27T10:16:48.276Z,62.15
2022-09-27T10:19:19.812Z,62.47
2022-09-27T10:21:49.164Z,62.38
2022-09-27T10:24:19.026Z,62.26
2022-09-27T10:26:50.287Z,62.12
2022-09-27T10:29:21.989Z,62.02
2022-09-27T10:31:50.651Z,62.06
2022-09-27T10:34:20.770Z,61.92
2022-09-27T10:37:01.334Z,61.60
2022-09-27T10:39:29.230Z,61.62
2022-09-27T10:41:59.786Z,61.38
2022-09-27T10:44:33.670Z,61.24
2022-09-27T10:47:09.226Z,61.21
2022-09-27T10:49:38.915Z,60.94
2022-09-27T10:52:09.101Z,61.13
2022-09-27T10:54:41.729Z,61.37
2022-09-27T10:57:18.693Z,61.16
2022-09-27T10:59:50.324Z,60.92
2022-09-27T11:02:20.687Z,60.54
2022-09-27T11:05:03.846Z,60.66
2022-09-27T11:07:35.441Z,60.69
2022-09-27T11:10:21.695Z,60.68
2022-09-27T11:13:05.571Z,60.63
2022-09-27T11:15:38.548Z,60.35
2022-09-27T11:18:12.006Z,60.33
2022-09-27T11:20:46.292Z,60.17
2022-09-27T11:23:28.613Z,60.03
2022-09-27T11:26:05.071Z,59.73
2022-09-27T11:28:39.384Z,59.91
2022-09-27T11:31:13.641Z,59.69
2022-09-27T11:33:56.347Z,59.45
2022-09-27T11:36:33.999Z,59.45
2022-09-27T11:39:06.568Z,59.38
2022-09-27T11:41:45.496Z,59.24
2022-09-27T11:44:21.676Z,59.22
2022-09-27T11:46:53.348Z,59.40
2022-09-27T11:49:36.422Z,58.90
2022-09-27T11:52:12.419Z,59.04
2022-09-27T11:54:47.629Z,58.90
2022-09-27T11:57:18.408Z,58.83
2022-09-27T12:00:07.808Z,58.71
2022-09-27T12:02:43.100Z,58.69
2022-09-27T12:05:20.255Z,58.51
2022-09-27T12:07:52.693Z,58.47
2022-09-27T12:10:21.210Z,58.50
2022-09-27T12:12:52.341Z,58.21
2022-09-27T12:15:21.652Z,58.12
2022-09-27T12:17:52.381Z,58.01
2022-09-27T12:20:23.876Z,57.96
2022-09-27T12:22:59.217Z,57.92
2022-09-27T12:25:30.423Z,57.86
2022-09-27T12:28:01.916Z,57.75
2022-09-27T12:30:31.378Z,57.63
2022-09-27T12:33:04.594Z,57.73
2022-09-27T12:35:36.450Z,57.62
2022-09-27T12:38:06.853Z,57.55
2022-09-27T12:40:38.190Z,57.49
2022-09-27T12:43:17.417Z,57.29
2022-09-27T12:45:51.332Z,57.38
2022-09-27T12:48:25.439Z,57.28
2022-09-27T12:50:55.469Z,57.47
2022-09-27T12:53:26.344Z,57.49
2022-09-27T12:56:06.712Z,57.42
2022-09-27T12:58:49.754Z,57.51
2022-09-27T13:01:23.977Z,57.40
2022-09-27T13:04:00.365Z,57.28
2022-09-27T13:06:46.776Z,57.41
2022-09-27T13:09:28.687Z,57.49
2022-09-27T13:12:01.056Z,57.39
2022-09-27T13:14:31.697Z,57.29
2022-09-27T13:16:59.725Z,57.38
2022-09-27T13:19:42.189Z,57.43
2022-09-27T13:22:31.303Z,57.57
2022-09-27T13:24:59.305Z,57.57
2022-09-27T13:27:37.350Z,57.53
2022-09-27T13:30:23.181Z,57.90
2022-09-27T13:33:05.250Z,57.82
2022-09-27T13:35:33.429Z,58.18
2022-09-27T13:38:02.789Z,58.21
2022-09-27T13:40:33.161Z,58.30
2022-09-27T13:43:26.428Z,58.02
2022-09-27T13:45:56.732Z,58.37
2022-09-27T13:48:42.670Z,58.30
2022-09-27T13:51:18.208Z,58.13
2022-09-27T13:53:56.009Z,58.36
2022-09-27T13:56:37.972Z,58.30
2022-09-27T13:59:08.720Z,58.34
2022-09-27T14:01:39.592Z,58.53
2022-09-27T14:04:24.899Z,58.48
2022-09-27T14:07:02.966Z,58.48
2022-09-27T14:09:33.119Z,58.57
2022-09-27T14:12:03.282Z,58.52
2022-09-27T14:14:33.000Z,58.64
2022-09-27T14:17:01.572Z,58.51
2022-09-27T14:19:29.681Z,58.57
2022-09-27T14:21:57.717Z,58.34
2022-09-27T14:24:27.966Z,58.51
2022-09-27T14:27:07.088Z,58.51
2022-09-27T14:29:40.347Z,58.53
2022-09-27T14:32:10.803Z,58.59
2022-09-27T14:34:39.392Z,58.65
2022-09-27T14:37:23.992Z,58.68
2022-09-27T14:39:57.067Z,58.74
2022-09-27T14:42:26.472Z,58.73
2022-09-27T14:44:55.848Z,58.76
2022-09-27T14:47:24.949Z,58.81
2022-09-27T14:49:54.073Z,58.73
2022-09-27T14:52:27.222Z,58.95
2022-09-27T14:54:59.075Z,58.91
2022-09-27T14:57:28.272Z,58.92
2022-09-27T14:59:57.557Z,59.10
2022-09-27T15:02:26.205Z,59.14
2022-09-27T15:04:54.705Z,59.02
2022-09-27T15:07:23.220Z,59.07
2022-09-27T15:09:51.641Z,59.12
2022-09-27T15:12:24.696Z,59.10
2022-09-27T15:14:54.323Z,59.00
2022-09-27T15:17:25.475Z,59.17
2022-09-27T15:20:18.101Z,59.19
2022-09-27T15:22:46.300Z,59.25
2022-09-27T15:25:20.013Z,59.16
2022-09-27T15:27:50.250Z,59.19
2022-09-27T15:30:19.298Z,59.37
2022-09-27T15:32:51.566Z,59.25
2022-09-27T15:35:23.509Z,59.43
2022-09-27T15:37:51.901Z,59.45
2022-09-27T15:40:52.064Z,59.10
2022-09-27T15:43:21.311Z,59.30
2022-09-27T15:45:50.685Z,59.42
2022-09-27T15:48:19.456Z,59.34
2022-09-27T15:50:47.921Z,59.40
2022-09-27T15:53:29.756Z,59.36
2022-09-27T15:55:57.631Z,59.33
2022-09-27T15:58:25.675Z,59.41
2022-09-27T16:00:54.367Z,59.34
2022-09-27T16:03:22.782Z,59.48
2022-09-27T16:05:50.769Z,59.43
2022-09-27T16:08:18.733Z,59.30
2022-09-27T16:10:48.441Z,59.58
2022-09-27T16:13:16.244Z,59.35
2022-09-27T16:15:45.121Z,59.45
2022-09-27T16:18:13.136Z,59.56
2022-09-27T16:20:41.304Z,59.50
2022-09-27T16:23:09.176Z,59.64
2022-09-27T16:25:37.222Z,59.38
2022-09-27T16:28:05.455Z,59.78
2022-09-27T16:30:33.564Z,59.57
2022-09-27T16:33:01.409Z,59.95
2022-09-27T16:35:29.583Z,59.72
2022-09-27T16:37:57.993Z,59.86
2022-09-27T16:40:27.550Z,59.80
2022-09-27T16:42:55.578Z,59.73
2022-09-27T16:45:23.381Z,59.86
2022-09-27T16:47:51.321Z,59.91
2022-09-27T16:50:37.281Z,59.97
2022-09-27T16:53:05.623Z,59.91
2022-09-27T16:55:33.619Z,60.20
2022-09-27T16:58:03.307Z,60.10
2022-09-27T17:00:33.056Z,60.25
2022-09-27T17:03:01.023Z,60.46
2022-09-27T17:05:28.905Z,60.46
2022-09-27T17:07:58.057Z,60.45
2022-09-27T17:10:25.890Z,60.61
2022-09-27T17:12:55.427Z,60.65
2022-09-27T17:15:23.695Z,60.79
2022-09-27T17:17:51.626Z,60.80
2022-09-27T17:20:19.571Z,60.67
2022-09-27T17:22:48.432Z,60.56
2022-09-27T17:25:16.457Z,60.91
2022-09-27T17:27:44.423Z,60.91
2022-09-27T17:30:13.352Z,60.92
2022-09-27T17:32:41.272Z,61.01
2022-09-27T17:35:09.449Z,61.07
2022-09-27T17:37:37.398Z,61.07
2022-09-27T17:40:06.208Z,61.20
2022-09-27T17:42:36.569Z,61.15
2022-09-27T17:45:04.736Z,61.29
2022-09-27T17:47:51.267Z,61.28
2022-09-27T17:50:25.162Z,61.46
2022-09-27T17:52:53.457Z,61.56
2022-09-27T17:55:21.487Z,61.52
2022-09-27T17:57:50.043Z,61.46
2022-09-27T18:00:18.787Z,61.78
2022-09-27T18:02:47.104Z,61.64
2022-09-27T18:05:15.224Z,61.59
2022-09-27T18:07:43.075Z,61.82
2022-09-27T18:10:11.076Z,61.74
2022-09-27T18:12:40.565Z,61.82
2022-09-27T18:15:09.258Z,61.79
2022-09-27T18:17:37.137Z,62.03
2022-09-27T18:20:06.223Z,61.99
2022-09-27T18:22:34.598Z,62.13
2022-09-27T18:25:03.304Z,61.85
2022-09-27T18:27:31.958Z,62.04
2022-09-27T18:30:02.710Z,62.07
2022-09-27T18:32:30.647Z,62.25
2022-09-27T18:34:58.608Z,62.11
2022-09-27T18:37:26.510Z,62.40
2022-09-27T18:39:55.055Z,62.12
2022-09-27T18:42:22.931Z,62.39
2022-09-27T18:44:50.740Z,62.35
2022-09-27T18:47:18.925Z,62.29
2022-09-27T18:49:46.877Z,62.64
2022-09-27T18:52:14.956Z,62.51
2022-09-27T18:54:43.103Z,62.53
2022-09-27T18:57:10.939Z,62.67
2022-09-27T18:59:38.948Z,62.85
2022-09-27T19:02:06.925Z,62.92
2022-09-27T19:04:34.928Z,62.79
2022-09-27T19:07:02.771Z,62.86
2022-09-27T19:09:30.832Z,62.71
2022-09-27T19:11:58.772Z,62.52
2022-09-27T19:14:27.281Z,62.66
2022-09-27T19:16:55.176Z,62.81
2022-09-27T19:19:23.622Z,62.53
2022-09-27T19:21:51.457Z,62.48
2022-09-27T19:24:19.391Z,62.47
2022-09-27T19:26:47.401Z,62.46
2022-09-27T19:29:15.343Z,62.71
2022-09-27T19:31:43.459Z,62.83
2022-09-27T19:34:11.492Z,62.90
2022-09-27T19:36:39.450Z,63.03
2022-09-27T19:39:07.478Z,63.10
2022-09-27T19:41:35.387Z,63.18
2022-09-27T19:44:03.427Z,63.34
2022-09-27T19:46:31.274Z,63.47
2022-09-27T19:49:00.059Z,63.43
2022-09-27T19:51:28.032Z,63.56
2022-09-27T19:53:56.291Z,63.77
2022-09-27T19:56:28.192Z,64.06
2022-09-27T19:58:59.719Z,64.04
2022-09-27T20:01:29.565Z,64.22
2022-09-27T20:04:09.548Z,64.31
2022-09-27T20:06:40.077Z,64.36
2022-09-27T20:09:08.875Z,64.45
2022-09-27T20:11:37.076Z,64.48
2022-09-27T20:14:04.986Z,64.47
2022-09-27T20:16:32.912Z,64.69
2022-09-27T20:19:00.899Z,64.64
2022-09-27T20:21:31.931Z,64.85
2022-09-27T20:24:01.320Z,64.80
2022-09-27T20:26:30.179Z,64.91
2022-09-27T20:29:00.723Z,64.99
2022-09-27T20:31:29.621Z,65.00
2022-09-27T20:33:57.627Z,65.12
2022-09-27T20:36:26.329Z,65.17
2022-09-27T20:38:59.629Z,65.20
2022-09-27T20:41:32.572Z,65.28
2022-09-27T20:44:02.707Z,65.29
2022-09-27T20:46:31.242Z,65.36
2022-09-27T20:49:00.290Z,65.38
2022-09-27T20:51:30.256Z,65.32
2022-09-27T20:53:58.371Z,65.32
2022-09-27T20:56:28.163Z,65.41
2022-09-27T20:58:57.251Z,65.49
2022-09-27T21:01:26.165Z,65.54
2022-09-27T21:03:54.450Z,65.62
2022-09-27T21:06:22.820Z,65.72
2022-09-27T21:08:50.640Z,65.65
2022-09-27T21:11:19.369Z,65.55
2022-09-27T21:13:48.048Z,65.70
2022-09-27T21:16:16.690Z,65.67
2022-09-27T21:18:44.647Z,65.81
2022-09-27T21:21:13.380Z,65.82
2022-09-27T21:23:44.831Z,65.85
2022-09-27T21:26:13.888Z,65.78
2022-09-27T21:28:42.951Z,65.93
2022-09-27T21:31:11.792Z,65.98
2022-09-27T21:33:40.552Z,66.08
2022-09-27T21:36:10.930Z,66.18
2022-09-27T21:38:38.863Z,66.11
2022-09-27T21:41:09.628Z,66.18
2022-09-27T21:43:39.252Z,66.15
2022-09-27T21:46:07.636Z,66.30
2022-09-27T21:48:36.128Z,66.31
2022-09-27T21:51:07.812Z,66.44
2022-09-27T21:53:36.116Z,66.47
2022-09-27T21:56:04.615Z,66.50
2022-09-27T21:58:36.494Z,66.53
2022-09-27T22:01:08.618Z,66.61
2022-09-27T22:03:36.975Z,66.73
2022-09-27T22:06:05.374Z,66.78
2022-09-27T22:08:35.872Z,66.87
2022-09-27T22:11:03.836Z,66.81
2022-09-27T22:13:32.039Z,67.06
2022-09-27T22:16:03.055Z,67.13
2022-09-27T22:18:31.000Z,67.11
2022-09-27T22:21:01.582Z,67.25
2022-09-27T22:23:29.527Z,67.22
2022-09-27T22:25:57.513Z,67.25
2022-09-27T22:28:25.684Z,67.26
2022-09-27T22:30:53.754Z,67.37
2022-09-27T22:33:21.900Z,67.42
2022-09-27T22:35:49.666Z,67.47
2022-09-27T22:38:17.511Z,67.53
2022-09-27T22:40:53.307Z,67.60
2022-09-27T22:43:21.191Z,67.67
2022-09-27T22:45:49.302Z,67.67
2022-09-27T22:48:17.482Z,67.81
2022-09-27T22:50:45.637Z,67.95
2022-09-27T22:53:13.553Z,67.91
2022-09-27T22:55:41.465Z,67.92
2022-09-27T22:58:09.268Z,67.98
2022-09-27T23:00:38.166Z,68.11
2022-09-27T23:03:06.219Z,67.98
2022-09-27T23:05:34.181Z,68.10
2022-09-27T23:08:02.260Z,68.00
2022-09-27T23:10:30.074Z,68.05
2022-09-27T23:12:58.475Z,68.22
2022-09-27T23:15:26.437Z,68.08
2022-09-27T23:17:54.853Z,68.18
2022-09-27T23:20:22.948Z,68.14
2022-09-27T23:22:51.416Z,68.36
2022-09-27T23:25:20.792Z,68.24
2022-09-27T23:27:49.693Z,68.41
2022-09-27T23:30:18.781Z,68.39
2022-09-27T23:32:51.576Z,68.38
2022-09-27T23:35:19.549Z,68.55
2022-09-27T23:37:47.405Z,68.40
2022-09-27T23:40:15.640Z,68.48
2022-09-27T23:42:43.548Z,68.53
2022-09-27T23:45:11.575Z,68.57
2022-09-27T23:47:40.005Z,68.59
2022-09-27T23:50:09.402Z,68.53
2022-09-27T23:52:37.310Z,68.58
2022-09-27T23:55:06.284Z,68.53
2022-09-27T23:57:34.209Z,68.67
